createdAt,value
2022-08-19T00:01:52.839Z,29.42
2022-08-19T00:04:43.539Z,29.56
2022-08-19T00:07:33.296Z,29.67
2022-08-19T00:10:23.403Z,29.79
2022-08-19T00:13:13.833Z,29.86
2022-08-19T00:16:05.618Z,29.97
2022-08-19T00:18:57.610Z,30.04
2022-08-19T00:21:47.359Z,30.09
2022-08-19T00:24:37.622Z,30.11
2022-08-19T00:27:27.706Z,30.17
2022-08-19T00:30:17.583Z,30.26
2022-08-19T00:33:07.234Z,30.29
2022-08-19T00:35:58.665Z,30.35
2022-08-19T00:38:48.825Z,30.44
2022-08-19T00:41:39.093Z,30.44
2022-08-19T00:44:30.496Z,30.52
2022-08-19T00:47:20.671Z,30.56
2022-08-19T00:50:13.166Z,30.60
2022-08-19T00:53:06.435Z,30.62
2022-08-19T00:55:59.709Z,30.63
2022-08-19T00:58:49.657Z,30.64
2022-08-19T01:01:41.024Z,30.65
2022-08-19T01:04:30.709Z,30.69
2022-08-19T01:07:21.005Z,30.72
2022-08-19T01:10:14.468Z,30.82
2022-08-19T01:13:05.398Z,30.87
2022-08-19T01:16:00.770Z,30.87
2022-08-19T01:18:50.237Z,30.89
2022-08-19T01:22:14.177Z,30.97
2022-08-19T01:25:08.880Z,31.02
2022-08-19T01:28:10.885Z,31.10
2022-08-19T01:31:01.286Z,31.18
2022-08-19T01:34:00.918Z,31.22
2022-08-19T01:36:51.551Z,31.18
2022-08-19T01:39:43.530Z,31.25
2022-08-19T01:42:34.439Z,31.31
2022-08-19T01:45:29.366Z,31.32
2022-08-19T01:48:18.794Z,31.33
2022-08-19T01:51:10.368Z,31.34
2022-08-19T01:54:00.320Z,31.36
2022-08-19T01:56:51.304Z,31.37
2022-08-19T01:59:43.065Z,31.37
2022-08-19T02:02:33.085Z,31.45
2022-08-19T02:05:23.871Z,31.53
2022-08-19T02:08:13.951Z,31.59
2022-08-19T02:11:03.681Z,31.67
2022-08-19T02:13:53.631Z,31.77
2022-08-19T02:16:43.312Z,31.80
2022-08-19T02:19:34.874Z,31.80
2022-08-19T02:22:26.567Z,31.81
2022-08-19T02:25:17.277Z,31.78
2022-08-19T02:28:07.525Z,31.90
2022-08-19T02:30:57.389Z,31.89
2022-08-19T02:33:48.210Z,31.89
2022-08-19T02:36:37.872Z,31.88
2022-08-19T02:39:32.861Z,32.01
2022-08-19T02:42:23.102Z,32.10
2022-08-19T02:45:13.359Z,32.20
2022-08-19T02:48:03.464Z,32.32
2022-08-19T02:51:02.721Z,32.39
2022-08-19T02:53:53.174Z,32.48
2022-08-19T02:56:43.810Z,32.53
2022-08-19T02:59:34.960Z,32.62
2022-08-19T03:02:25.270Z,32.63
2022-08-19T03:05:15.614Z,32.65
2022-08-19T03:08:06.483Z,32.73
2022-08-19T03:10:57.044Z,32.80
2022-08-19T03:13:46.988Z,32.84
2022-08-19T03:16:43.329Z,32.94
2022-08-19T03:19:34.382Z,33.00
2022-08-19T03:22:23.388Z,33.06
2022-08-19T03:25:14.395Z,33.02
2022-08-19T03:28:04.023Z,33.15
2022-08-19T03:31:03.522Z,33.18
2022-08-19T03:33:54.683Z,33.12
2022-08-19T03:36:45.152Z,33.07
2022-08-19T03:39:35.150Z,33.24
2022-08-19T03:42:38.734Z,33.28
2022-08-19T03:45:37.857Z,33.36
2022-08-19T03:48:29.901Z,33.37
2022-08-19T03:51:34.135Z,33.47
2022-08-19T03:54:25.291Z,33.55
2022-08-19T03:57:17.985Z,33.62
2022-08-19T04:00:13.380Z,33.70
2022-08-19T04:03:03.827Z,33.76
2022-08-19T04:05:53.929Z,33.78
2022-08-19T04:08:45.892Z,33.84
2022-08-19T04:11:44.957Z,33.91
2022-08-19T04:14:36.836Z,33.98
2022-08-19T04:17:26.317Z,34.03
2022-08-19T04:20:16.632Z,34.09
2022-08-19T04:23:08.642Z,34.08
2022-08-19T04:25:59.238Z,34.07
2022-08-19T04:28:50.254Z,34.15
2022-08-19T04:31:40.257Z,34.22
2022-08-19T04:34:31.951Z,34.15
2022-08-19T04:37:22.357Z,34.18
2022-08-19T04:40:31.405Z,34.05
2022-08-19T04:43:20.800Z,33.80
2022-08-19T04:46:12.608Z,34.07
2022-08-19T04:49:24.593Z,33.98
2022-08-19T04:52:14.151Z,34.11
2022-08-19T04:55:03.493Z,34.27
2022-08-19T04:57:53.776Z,34.26
2022-08-19T05:00:43.868Z,34.21
2022-08-19T05:03:35.823Z,34.32
2022-08-19T05:06:27.803Z,34.37
2022-08-19T05:09:18.105Z,34.37
2022-08-19T05:12:08.652Z,34.43
2022-08-19T05:15:00.080Z,34.43
2022-08-19T05:18:09.501Z,34.42
2022-08-19T05:21:19.730Z,34.42
2022-08-19T05:24:11.215Z,34.51
2022-08-19T05:27:01.079Z,34.61
2022-08-19T05:29:51.033Z,34.69
2022-08-19T05:32:42.127Z,34.75
2022-08-19T05:35:34.726Z,34.86
2022-08-19T05:38:25.357Z,35.00
2022-08-19T05:41:17.668Z,35.04
2022-08-19T05:44:11.436Z,35.06
2022-08-19T05:47:07.019Z,35.03
2022-08-19T05:49:57.098Z,35.13
2022-08-19T05:52:50.687Z,35.18
2022-08-19T05:55:41.018Z,35.32
2022-08-19T05:58:31.057Z,35.39
2022-08-19T06:01:21.684Z,35.39
2022-08-19T06:04:12.037Z,35.46
2022-08-19T06:07:12.282Z,35.59
2022-08-19T06:10:02.324Z,35.63
2022-08-19T06:12:53.421Z,35.67
2022-08-19T06:30:15.367Z,35.91
2022-08-19T06:33:50.209Z,35.89
2022-08-19T06:44:28.663Z,35.45
2022-08-19T06:48:08.097Z,35.24
2022-08-19T06:51:02.400Z,35.04
2022-08-19T06:53:59.189Z,34.86
2022-08-19T06:56:50.045Z,34.74
2022-08-19T06:59:39.972Z,34.56
2022-08-19T07:02:31.926Z,34.45
2022-08-19T07:05:21.558Z,34.30
2022-08-19T07:08:11.684Z,34.19
2022-08-19T07:11:01.621Z,34.14
2022-08-19T07:13:59.712Z,34.04
2022-08-19T07:16:51.873Z,34.04
2022-08-19T07:19:42.391Z,33.97
2022-08-19T07:22:33.008Z,33.92
2022-08-19T07:25:23.217Z,33.88
2022-08-19T07:28:25.116Z,33.82
2022-08-19T07:31:23.189Z,33.78
2022-08-19T07:34:17.062Z,33.73
2022-08-19T07:37:09.343Z,33.61
2022-08-19T07:39:59.083Z,33.54
2022-08-19T07:42:52.018Z,33.49
2022-08-19T07:45:42.518Z,33.44
2022-08-19T07:48:33.595Z,33.36
2022-08-19T07:51:36.146Z,33.29
2022-08-19T07:54:29.436Z,33.23
2022-08-19T07:57:21.610Z,33.19
2022-08-19T08:00:11.333Z,33.15
2022-08-19T08:03:04.035Z,33.04
2022-08-19T08:06:12.098Z,33.02
2022-08-19T08:09:16.502Z,32.96
2022-08-19T08:12:30.809Z,32.92
2022-08-19T08:15:23.582Z,32.88
2022-08-19T08:18:14.944Z,32.88
2022-08-19T08:21:03.966Z,32.81
2022-08-19T08:23:56.202Z,32.77
2022-08-19T08:26:46.745Z,32.77
2022-08-19T08:29:47.385Z,32.72
2022-08-19T08:32:37.076Z,32.67
2022-08-19T08:35:31.241Z,32.68
2022-08-19T08:38:20.832Z,32.64
2022-08-19T08:41:34.315Z,32.64
2022-08-19T08:44:32.055Z,32.59
2022-08-19T08:47:23.343Z,32.52
2022-08-19T08:50:24.633Z,32.52
2022-08-19T08:53:18.029Z,32.49
2022-08-19T08:56:19.816Z,32.49
2022-08-19T08:59:24.147Z,32.46
2022-08-19T09:02:15.852Z,32.39
2022-08-19T09:05:06.117Z,32.39
2022-08-19T09:08:00.412Z,32.37
2022-08-19T09:10:56.125Z,32.29
2022-08-19T09:14:04.518Z,32.31
2022-08-19T09:16:54.559Z,32.32
2022-08-19T09:20:19.326Z,32.41
2022-08-19T09:23:10.436Z,32.39
2022-08-19T09:26:00.655Z,32.37
2022-08-19T09:28:52.579Z,32.36
2022-08-19T09:31:43.374Z,32.35
2022-08-19T09:34:32.998Z,32.33
2022-08-19T09:37:28.108Z,32.29
2022-08-19T09:40:19.826Z,32.25
2022-08-19T09:43:13.401Z,32.31
2022-08-19T09:46:04.557Z,32.31
2022-08-19T09:48:57.183Z,32.32
2022-08-19T09:51:51.222Z,32.30
2022-08-19T09:54:41.665Z,32.35
2022-08-19T09:57:33.763Z,32.29
2022-08-19T10:00:23.447Z,32.30
2022-08-19T10:03:14.644Z,32.28
2022-08-19T10:06:06.221Z,32.27
2022-08-19T10:09:08.977Z,32.25
2022-08-19T10:11:59.116Z,32.21
2022-08-19T10:14:53.858Z,32.23
2022-08-19T10:17:48.241Z,32.21
2022-08-19T10:20:45.903Z,32.21
2022-08-19T10:23:43.807Z,32.20
2022-08-19T10:26:39.485Z,32.24
2022-08-19T10:29:32.693Z,32.28
2022-08-19T10:32:33.651Z,32.27
2022-08-19T10:35:24.126Z,32.27
2022-08-19T10:38:16.915Z,32.24
2022-08-19T10:41:21.538Z,32.25
2022-08-19T10:44:16.038Z,32.18
2022-08-19T10:47:18.007Z,32.12
2022-08-19T10:50:33.185Z,32.11
2022-08-19T10:53:27.775Z,32.09
2022-08-19T10:56:35.378Z,32.10
2022-08-19T10:59:35.963Z,32.07
2022-08-19T11:02:26.397Z,32.03
2022-08-19T11:05:17.029Z,32.00
2022-08-19T11:08:23.131Z,31.94
2022-08-19T11:11:14.017Z,31.94
2022-08-19T11:14:04.605Z,31.93
2022-08-19T11:16:58.136Z,31.87
2022-08-19T11:19:49.228Z,31.86
2022-08-19T11:22:41.643Z,31.84
2022-08-19T11:25:34.814Z,31.78
2022-08-19T11:28:24.438Z,31.71
2022-08-19T11:31:22.351Z,31.67
2022-08-19T11:34:22.359Z,31.66
2022-08-19T11:37:12.511Z,31.61
2022-08-19T11:40:02.757Z,31.64
2022-08-19T11:42:59.380Z,31.64
2022-08-19T11:45:52.524Z,31.61
2022-08-19T11:48:42.653Z,31.59
2022-08-19T11:51:33.308Z,31.57
2022-08-19T11:54:22.581Z,31.54
2022-08-19T11:57:12.309Z,31.55
2022-08-19T12:00:04.938Z,31.48
2022-08-19T12:02:57.152Z,31.53
2022-08-19T12:05:47.512Z,31.32
2022-08-19T12:08:37.410Z,31.50
2022-08-19T12:11:27.697Z,31.50
2022-08-19T12:14:20.982Z,31.35
2022-08-19T12:17:11.487Z,31.29
2022-08-19T12:20:01.689Z,31.36
2022-08-19T12:22:50.846Z,31.27
2022-08-19T12:26:08.056Z,31.17
2022-08-19T12:28:58.385Z,31.13
2022-08-19T12:31:48.332Z,31.10
2022-08-19T12:34:39.518Z,31.22
2022-08-19T12:37:28.887Z,31.29
2022-08-19T12:40:21.431Z,31.40
2022-08-19T12:43:14.751Z,31.44
2022-08-19T12:46:06.523Z,31.40
2022-08-19T12:48:59.938Z,31.48
2022-08-19T12:51:55.074Z,31.53
2022-08-19T12:54:45.756Z,31.55
2022-08-19T12:57:36.942Z,31.57
2022-08-19T13:00:27.152Z,31.54
2022-08-19T13:03:16.635Z,31.56
2022-08-19T13:06:08.563Z,31.58
2022-08-19T13:08:59.733Z,31.59
2022-08-19T13:11:49.604Z,31.51
2022-08-19T13:14:40.329Z,31.48
2022-08-19T13:17:31.098Z,31.47
2022-08-19T13:20:22.291Z,31.47
2022-08-19T13:23:12.516Z,31.41
2022-08-19T13:26:04.628Z,31.41
2022-08-19T13:29:12.546Z,31.38
2022-08-19T13:32:20.871Z,31.37
2022-08-19T13:35:13.775Z,31.33
2022-08-19T13:38:11.836Z,31.30
2022-08-19T13:41:12.112Z,31.31
2022-08-19T13:44:05.771Z,31.31
2022-08-19T13:46:55.795Z,31.30
2022-08-19T13:49:45.684Z,31.34
2022-08-19T13:52:35.692Z,31.28
2022-08-19T13:55:26.469Z,31.28
2022-08-19T13:58:16.791Z,31.25
2022-08-19T14:01:08.401Z,31.25
2022-08-19T14:03:58.121Z,31.29
2022-08-19T14:06:51.824Z,31.28
2022-08-19T14:09:41.953Z,31.27
2022-08-19T14:12:34.434Z,31.25
2022-08-19T14:15:24.333Z,31.17
2022-08-19T14:18:14.838Z,31.30
2022-08-19T14:21:06.998Z,31.34
2022-08-19T14:23:57.296Z,31.38
2022-08-19T14:26:46.975Z,31.37
2022-08-19T14:29:37.085Z,31.36
2022-08-19T14:32:29.276Z,31.34
2022-08-19T14:35:20.352Z,31.30
2022-08-19T14:38:28.059Z,31.36
2022-08-19T14:41:24.491Z,31.32
2022-08-19T14:44:14.981Z,31.31
2022-08-19T14:47:04.426Z,31.31
2022-08-19T14:49:54.434Z,31.28
2022-08-19T14:52:43.781Z,31.30
2022-08-19T14:55:34.628Z,31.28
2022-08-19T14:58:28.571Z,31.28
2022-08-19T15:01:19.906Z,31.29
2022-08-19T15:04:09.494Z,31.28
2022-08-19T15:07:00.051Z,31.27
2022-08-19T15:09:53.113Z,31.25
2022-08-19T15:12:42.767Z,31.27
2022-08-19T15:15:32.453Z,31.26
2022-08-19T15:18:22.772Z,31.25
2022-08-19T15:21:14.722Z,31.24
2022-08-19T15:24:07.379Z,31.21
2022-08-19T15:26:58.048Z,31.21
2022-08-19T15:29:51.175Z,31.22
2022-08-19T15:32:48.955Z,31.21
2022-08-19T15:35:38.831Z,31.19
2022-08-19T15:38:28.670Z,31.16
2022-08-19T15:41:25.002Z,31.15
2022-08-19T15:44:17.755Z,31.14
2022-08-19T15:47:08.143Z,31.12
2022-08-19T15:50:00.615Z,31.08
2022-08-19T15:52:54.056Z,31.08
2022-08-19T15:55:47.536Z,31.08
2022-08-19T15:58:54.817Z,31.05
2022-08-19T16:02:04.258Z,31.04
2022-08-19T16:05:13.740Z,31.01
2022-08-19T16:08:05.834Z,31.01
2022-08-19T16:10:55.246Z,31.02
2022-08-19T16:13:44.846Z,31.03
2022-08-19T16:16:36.011Z,30.94
2022-08-19T16:19:26.319Z,30.97
2022-08-19T16:22:18.096Z,30.93
2022-08-19T16:25:09.937Z,30.97
2022-08-19T16:28:06.475Z,30.92
2022-08-19T16:30:58.135Z,30.90
2022-08-19T16:33:47.898Z,30.89
2022-08-19T16:36:37.092Z,30.91
2022-08-19T16:39:26.640Z,30.86
2022-08-19T16:42:16.658Z,30.82
2022-08-19T16:45:06.746Z,30.78
2022-08-19T16:47:58.524Z,30.75
2022-08-19T16:50:49.756Z,30.73
2022-08-19T16:53:39.960Z,30.67
2022-08-19T16:56:30.276Z,30.59
2022-08-19T16:59:19.396Z,30.58
2022-08-19T17:02:09.782Z,30.58
2022-08-19T17:05:00.175Z,30.49
2022-08-19T17:07:51.872Z,30.47
2022-08-19T17:10:45.700Z,30.49
2022-08-19T17:13:47.952Z,30.51
2022-08-19T17:16:38.649Z,30.47
2022-08-19T17:19:29.598Z,30.41
2022-08-19T17:22:19.114Z,30.43
2022-08-19T17:25:09.191Z,30.35
2022-08-19T17:27:59.742Z,30.37
2022-08-19T17:30:49.595Z,30.33
2022-08-19T17:33:41.244Z,30.38
2022-08-19T17:36:34.332Z,30.35
2022-08-19T17:39:23.975Z,30.32
2022-08-19T17:42:13.338Z,30.30
2022-08-19T17:45:03.656Z,30.29
2022-08-19T17:47:53.110Z,30.25
2022-08-19T17:50:43.992Z,30.26
2022-08-19T17:53:37.793Z,30.27
2022-08-19T17:56:30.077Z,30.26
2022-08-19T17:59:19.333Z,30.24
2022-08-19T18:02:11.295Z,30.20
2022-08-19T18:05:01.486Z,30.24
2022-08-19T18:07:53.676Z,30.19
2022-08-19T18:10:43.748Z,30.20
2022-08-19T18:13:32.824Z,30.17
2022-08-19T18:16:23.579Z,30.16
2022-08-19T18:19:13.228Z,30.17
2022-08-19T18:22:02.361Z,30.13
2022-08-19T18:24:52.629Z,30.14
2022-08-19T18:27:44.700Z,30.12
2022-08-19T18:30:35.699Z,30.11
2022-08-19T18:33:25.145Z,30.10
2022-08-19T18:36:15.363Z,30.09
2022-08-19T18:39:29.225Z,30.05
2022-08-19T18:42:38.914Z,30.09
2022-08-19T18:45:46.849Z,30.07
2022-08-19T18:48:54.825Z,30.01
2022-08-19T18:51:47.729Z,30.02
2022-08-19T18:54:38.163Z,30.02
2022-08-19T18:57:27.823Z,30.03
2022-08-19T19:00:28.528Z,29.99
2022-08-19T19:03:17.723Z,29.99
2022-08-19T19:06:08.526Z,30.02
2022-08-19T19:08:58.740Z,30.02
2022-08-19T19:11:59.717Z,29.97
2022-08-19T19:14:50.227Z,29.97
2022-08-19T19:17:41.257Z,29.94
2022-08-19T19:20:36.375Z,29.91
2022-08-19T19:23:26.704Z,29.88
2022-08-19T19:26:16.310Z,29.88
2022-08-19T19:29:06.231Z,29.86
2022-08-19T19:31:57.391Z,29.84
2022-08-19T19:34:47.599Z,29.81
2022-08-19T19:37:37.070Z,29.81
2022-08-19T19:40:26.468Z,29.78
2022-08-19T19:43:19.576Z,29.77
2022-08-19T19:46:09.560Z,29.78
2022-08-19T19:49:00.275Z,29.74
2022-08-19T19:51:50.550Z,29.73
2022-08-19T19:54:39.737Z,29.70
2022-08-19T19:57:44.392Z,29.69
2022-08-19T20:00:33.591Z,29.67
2022-08-19T20:03:23.327Z,29.67
2022-08-19T20:06:14.371Z,29.65
2022-08-19T20:09:12.753Z,29.61
2022-08-19T20:12:03.728Z,29.64
2022-08-19T20:14:53.482Z,29.62
2022-08-19T20:17:43.973Z,29.59
2022-08-19T20:20:34.636Z,29.56
2022-08-19T20:23:24.865Z,29.51
2022-08-19T20:26:24.228Z,29.52
2022-08-19T20:29:39.168Z,29.49
2022-08-19T20:32:31.592Z,29.43
2022-08-19T20:35:22.815Z,29.43
2022-08-19T20:38:13.613Z,29.42
2022-08-19T20:41:04.576Z,29.42
2022-08-19T20:43:53.692Z,29.43
2022-08-19T20:46:43.150Z,29.43
2022-08-19T20:49:45.347Z,29.42
2022-08-19T20:52:38.966Z,29.42
2022-08-19T20:55:29.711Z,29.40
2022-08-19T20:58:22.507Z,29.40
2022-08-19T21:01:12.222Z,29.36
2022-08-19T21:04:01.654Z,29.38
2022-08-19T21:06:53.535Z,29.34
2022-08-19T21:09:43.367Z,29.32
2022-08-19T21:12:33.088Z,29.28
2022-08-19T21:15:23.077Z,29.32
2022-08-19T21:18:16.823Z,29.30
2022-08-19T21:21:06.586Z,29.28
2022-08-19T21:23:56.711Z,29.28
2022-08-19T21:26:49.451Z,29.28
2022-08-19T21:29:41.890Z,29.28
2022-08-19T21:32:30.995Z,29.26
2022-08-19T21:35:21.068Z,29.23
2022-08-19T21:38:10.572Z,29.24
2022-08-19T21:41:06.214Z,29.22
2022-08-19T21:43:56.138Z,29.22
2022-08-19T21:46:45.392Z,29.18
2022-08-19T21:49:40.232Z,29.20
2022-08-19T21:52:33.160Z,29.18
2022-08-19T21:55:23.407Z,29.17
2022-08-19T21:58:13.665Z,29.16
2022-08-19T22:01:07.777Z,29.14
2022-08-19T22:03:57.218Z,29.14
2022-08-19T22:06:49.112Z,29.12
2022-08-19T22:09:39.702Z,29.08
2022-08-19T22:12:34.926Z,29.11
2022-08-19T22:15:25.409Z,29.08
2022-08-19T22:18:15.087Z,29.07
2022-08-19T22:21:11.630Z,29.09
2022-08-19T22:24:04.255Z,29.08
2022-08-19T22:26:53.872Z,29.07
2022-08-19T22:29:44.186Z,29.06
2022-08-19T22:32:33.341Z,29.06
2022-08-19T22:35:25.790Z,29.06
2022-08-19T22:38:16.966Z,29.06
2022-08-19T22:41:09.492Z,29.07
2022-08-19T22:43:59.555Z,29.06
2022-08-19T22:46:50.200Z,29.09
2022-08-19T22:49:39.950Z,29.09
2022-08-19T22:52:29.345Z,29.10
2022-08-19T22:55:19.041Z,29.11
2022-08-19T22:58:08.606Z,29.12
2022-08-19T23:00:59.274Z,29.15
2022-08-19T23:03:48.901Z,29.16
2022-08-19T23:06:41.873Z,29.17
2022-08-19T23:09:31.667Z,29.17
2022-08-19T23:12:39.264Z,29.17
2022-08-19T23:15:32.065Z,29.19
2022-08-19T23:18:21.495Z,29.19
2022-08-19T23:21:11.138Z,29.24
2022-08-19T23:24:01.098Z,29.22
2022-08-19T23:27:08.635Z,29.28
2022-08-19T23:30:18.930Z,29.29
2022-08-19T23:33:46.627Z,29.31
2022-08-19T23:36:38.060Z,29.35
2022-08-19T23:39:31.094Z,29.37
2022-08-19T23:42:21.961Z,29.37
2022-08-19T23:45:11.968Z,29.42
2022-08-19T23:48:02.544Z,29.46
2022-08-19T23:50:53.416Z,29.53
2022-08-19T23:53:43.739Z,29.54
2022-08-19T23:56:33.488Z,29.55
2022-08-19T23:59:22.898Z,29.67
